Time;durP1;ratioP1;P1;durP2;ratioP2;P2;SDS_P1;SDS_P2;PMS_P1;PMS_P2;Temp;Humidity;BMP_temperature;BMP_pressure;BME280_temperature;BME280_humidity;BME280_pressure;Samples;Min_cycle;Max_cycle;Signal;HPM_P1;HPM_P2
2022/04/10 00:00:24;;;;;;;15.43;4.37;;;4.30;99.90;;;;;;10306521;28;20214;-76
2022/04/10 00:05:45;;;;;;;9.17;2.53;;;4.40;99.90;;;;;;10319318;28;20222;-76
2022/04/10 00:11:07;;;;;;;5.87;2.20;;;4.30;99.90;;;;;;10320167;28;20434;-80
2022/04/10 00:16:28;;;;;;;14.03;3.03;;;4.50;99.90;;;;;;10305534;28;20195;-76
2022/04/10 00:21:50;;;;;;;8.33;2.27;;;4.40;99.90;;;;;;10310634;28;20226;-76
2022/04/10 00:27:14;;;;;;;8.27;2.17;;;4.30;99.90;;;;;;10304357;28;20401;-76
2022/04/10 00:32:36;;;;;;;9.80;3.40;;;4.20;99.90;;;;;;11138384;23;20209;-77
2022/04/10 00:37:51;;;;;;;9.90;2.87;;;4.20;99.90;;;;;;10298607;28;20224;-78
2022/04/10 00:43:13;;;;;;;10.77;2.53;;;4.30;99.90;;;;;;10347946;28;20198;-79
2022/04/10 00:48:34;;;;;;;8.17;2.10;;;4.30;99.90;;;;;;10291543;28;20302;-83
2022/04/10 00:53:56;;;;;;;8.07;2.07;;;4.30;99.90;;;;;;10306166;28;20272;-80
2022/04/10 00:59:17;;;;;;;6.63;2.07;;;4.30;99.90;;;;;;10304332;28;20190;-79
2022/04/10 01:04:39;;;;;;;10.40;2.93;;;4.40;99.90;;;;;;10318186;28;20221;-81
2022/04/10 01:10:01;;;;;;;7.63;2.20;;;4.40;99.90;;;;;;10314547;28;20221;-76
2022/04/10 01:15:23;;;;;;;6.80;2.90;;;4.40;99.90;;;;;;10317485;28;20198;-83
2022/04/10 01:20:45;;;;;;;7.50;1.97;;;4.30;99.90;;;;;;10316895;28;20193;-80
2022/04/10 01:26:07;;;;;;;8.00;2.20;;;4.30;99.90;;;;;;10332500;28;20229;-77
2022/04/10 01:31:30;;;;;;;9.83;2.30;;;4.30;99.90;;;;;;10316525;28;20236;-81
2022/04/10 01:36:52;;;;;;;10.90;2.10;;;4.20;99.90;;;;;;10301599;28;20242;-80
2022/04/10 01:42:13;;;;;;;6.10;2.07;;;4.30;99.90;;;;;;10315912;28;20183;-81
2022/04/10 01:47:34;;;;;;;8.10;2.50;;;4.30;99.90;;;;;;10315773;28;20407;-78
2022/04/10 01:52:55;;;;;;;10.00;2.33;;;4.30;99.90;;;;;;10302118;28;20201;-79
2022/04/10 01:58:20;;;;;;;5.53;1.90;;;4.20;99.90;;;;;;10329615;28;20273;-83
2022/04/10 02:03:41;;;;;;;6.83;1.80;;;4.20;99.90;;;;;;10288074;28;20200;-77
2022/04/10 02:09:07;;;;;;;4.90;2.10;;;4.10;99.90;;;;;;10303521;28;20296;-85
2022/04/10 02:14:30;;;;;;;8.33;2.10;;;4.10;99.90;;;;;;10301387;28;20200;-84
2022/04/10 02:19:52;;;;;;;7.37;2.37;;;4.20;99.90;;;;;;10328386;28;20195;-80
2022/04/10 02:25:13;;;;;;;9.77;2.43;;;4.10;99.90;;;;;;10301219;28;20197;-82
2022/04/10 02:30:34;;;;;;;7.63;2.03;;;4.20;99.90;;;;;;10330744;28;20209;-75
2022/04/10 02:35:56;;;;;;;8.53;2.57;;;4.20;99.90;;;;;;10316561;28;20257;-81
2022/04/10 02:41:17;;;;;;;10.13;2.60;;;4.10;99.90;;;;;;10300744;28;20276;-75
2022/04/10 02:46:38;;;;;;;7.03;1.87;;;4.10;99.90;;;;;;10282954;28;20285;-76
2022/04/10 02:52:00;;;;;;;11.10;2.63;;;4.00;99.90;;;;;;10282676;29;20500;-75
2022/04/10 02:57:21;;;;;;;7.97;2.20;;;4.00;99.90;;;;;;10303220;28;20426;-81
2022/04/10 03:02:42;;;;;;;9.13;2.30;;;4.00;99.90;;;;;;10296039;28;20197;-79
2022/04/10 03:08:06;;;;;;;6.87;2.27;;;4.00;99.90;;;;;;10293552;28;20523;-84
2022/04/10 03:13:28;;;;;;;11.63;2.70;;;4.00;99.90;;;;;;10337767;28;20225;-82
2022/04/10 03:18:51;;;;;;;7.80;1.90;;;4.10;99.90;;;;;;10321734;28;20198;-77
2022/04/10 03:24:12;;;;;;;9.70;2.30;;;4.10;99.90;;;;;;10337481;28;20241;-83
2022/04/10 03:29:35;;;;;;;12.50;2.83;;;4.00;99.90;;;;;;10320979;28;20242;-81
2022/04/10 03:34:57;;;;;;;6.17;2.03;;;4.10;99.90;;;;;;10316363;28;20233;-83
2022/04/10 03:40:19;;;;;;;9.63;2.03;;;4.00;99.90;;;;;;10281914;29;20507;-79
2022/04/10 03:45:43;;;;;;;13.77;3.17;;;4.10;99.90;;;;;;10284560;29;20206;-76
2022/04/10 03:51:06;;;;;;;5.33;2.17;;;4.00;99.90;;;;;;10294064;28;20202;-77
2022/04/10 03:56:29;;;;;;;8.50;2.40;;;3.90;99.90;;;;;;10293481;28;20194;-76
2022/04/10 04:01:51;;;;;;;9.27;2.50;;;3.80;99.90;;;;;;10281297;28;20207;-81
2022/04/10 04:07:13;;;;;;;6.33;2.67;;;3.80;99.90;;;;;;10319783;28;20218;-80
2022/04/10 04:12:35;;;;;;;14.80;3.00;;;3.70;99.90;;;;;;10333156;28;20264;-76
2022/04/10 04:17:57;;;;;;;7.43;2.43;;;3.90;99.90;;;;;;10319409;28;20197;-81
2022/04/10 04:23:19;;;;;;;9.57;2.50;;;3.90;99.90;;;;;;10332988;28;20193;-76
2022/04/10 04:28:43;;;;;;;8.37;1.77;;;3.80;99.90;;;;;;10332464;28;20557;-82
2022/04/10 04:34:09;;;;;;;9.17;3.00;;;3.70;99.90;;;;;;10318555;28;20284;-81
2022/04/10 04:39:31;;;;;;;7.60;2.40;;;3.60;99.90;;;;;;10264923;29;20515;-76
2022/04/10 04:44:52;;;;;;;8.77;2.47;;;3.70;99.90;;;;;;10278331;29;20357;-76
2022/04/10 04:50:14;;;;;;;6.67;2.40;;;3.70;99.90;;;;;;10291542;28;20272;-76
2022/04/10 04:55:36;;;;;;;10.63;3.17;;;3.70;99.90;;;;;;10277576;29;20196;-76
2022/04/10 05:00:58;;;;;;;8.33;2.30;;;3.70;99.90;;;;;;10279924;28;20514;-77
2022/04/10 05:06:20;;;;;;;9.40;2.50;;;3.80;99.90;;;;;;10330241;28;20218;-75
2022/04/10 05:11:41;;;;;;;9.33;2.90;;;4.00;99.90;;;;;;10302564;28;20272;-84
2022/04/10 05:17:02;;;;;;;8.53;2.60;;;3.90;99.90;;;;;;10317068;28;20218;-77
2022/04/10 05:22:26;;;;;;;11.43;2.90;;;4.10;99.90;;;;;;10316782;28;20198;-76
2022/04/10 05:27:55;;;;;;;13.37;3.10;;;4.10;99.90;;;;;;10316287;28;20527;-76
2022/04/10 05:33:16;;;;;;;8.37;2.27;;;4.20;99.90;;;;;;10301947;28;20246;-77
2022/04/10 05:38:39;;;;;;;8.50;2.17;;;4.40;99.90;;;;;;10298098;28;20242;-77
2022/04/10 05:44:03;;;;;;;7.63;1.97;;;4.40;99.90;;;;;;10275817;29;20266;-77
2022/04/10 05:49:25;;;;;;;6.17;1.83;;;4.50;99.90;;;;;;10275518;29;20230;-77
2022/04/10 05:54:46;;;;;;;6.77;2.03;;;4.50;99.90;;;;;;10288926;28;20202;-85
2022/04/10 06:00:10;;;;;;;8.03;2.07;;;4.50;99.90;;;;;;10288977;28;20214;-81
2022/04/10 06:05:50;;;;;;;7.33;1.93;;;4.50;99.90;;;;;;10288959;28;20202;-77
2022/04/10 06:11:17;;;;;;;6.63;1.90;;;4.50;99.90;;;;;;10288838;28;20277;-76
2022/04/10 06:16:39;;;;;;;6.33;2.10;;;4.40;99.90;;;;;;10277065;28;20460;-76
2022/04/10 06:22:01;;;;;;;7.20;2.07;;;4.20;99.90;;;;;;10274437;28;20202;-76
2022/04/10 06:27:24;;;;;;;9.17;2.40;;;3.90;99.90;;;;;;10274209;29;20230;-77
2022/04/10 06:32:45;;;;;;;9.80;2.50;;;3.80;99.90;;;;;;10286718;28;20187;-77
2022/04/10 06:38:07;;;;;;;8.17;2.97;;;4.00;99.90;;;;;;10315993;28;20239;-77
2022/04/10 06:43:29;;;;;;;8.93;2.37;;;4.20;99.90;;;;;;10327832;28;20201;-77
2022/04/10 06:48:57;;;;;;;11.40;3.43;;;4.40;99.90;;;;;;10313687;28;20233;-76
2022/04/10 06:54:20;;;;;;;9.60;2.40;;;4.80;99.90;;;;;;10327504;28;20245;-77
2022/04/10 06:59:42;;;;;;;8.83;2.53;;;5.40;99.90;;;;;;10327578;28;20421;-78
2022/04/10 07:05:06;;;;;;;10.97;2.50;;;5.70;99.90;;;;;;10313223;28;20518;-78
2022/04/10 07:10:32;;;;;;;9.43;3.03;;;5.90;99.90;;;;;;10327383;28;20228;-80
2022/04/10 07:15:54;;;;;;;9.00;2.80;;;5.70;99.90;;;;;;10313504;28;20193;-79
2022/04/10 07:21:15;;;;;;;11.40;2.80;;;5.50;99.90;;;;;;10314203;28;20204;-77
2022/04/10 07:26:38;;;;;;;10.07;3.27;;;5.50;99.90;;;;;;10315571;28;20301;-78
2022/04/10 07:32:05;;;;;;;12.30;2.80;;;5.50;99.90;;;;;;10317725;28;20205;-77
2022/04/10 07:37:32;;;;;;;8.67;2.30;;;5.30;99.90;;;;;;10295058;28;20339;-81
2022/04/10 07:42:56;;;;;;;7.83;2.60;;;5.20;99.90;;;;;;10282639;28;20278;-77
2022/04/10 07:48:20;;;;;;;7.00;2.80;;;4.80;99.90;;;;;;10280073;29;20233;-78
2022/04/10 07:53:42;;;;;;;14.20;2.97;;;4.60;99.90;;;;;;10280283;29;20191;-77
2022/04/10 07:59:03;;;;;;;6.97;2.53;;;4.70;99.90;;;;;;10280350;29;20267;-80
2022/04/10 08:04:30;;;;;;;10.47;2.23;;;5.30;99.90;;;;;;10293756;28;20198;-78
2022/04/10 08:09:54;;;;;;;9.80;2.97;;;5.90;99.90;;;;;;10281238;29;20303;-77
2022/04/10 08:15:15;;;;;;;7.13;2.13;;;6.70;99.90;;;;;;10265760;29;20251;-76
2022/04/10 08:20:37;;;;;;;10.17;2.40;;;7.80;99.90;;;;;;10279717;29;20206;-80
2022/04/10 08:25:58;;;;;;;11.80;2.00;;;9.10;99.90;;;;;;10292626;28;20196;-83
2022/04/10 08:31:19;;;;;;;12.77;2.40;;;9.40;99.90;;;;;;10287543;28;20204;-82
2022/04/10 08:36:40;;;;;;;9.90;2.23;;;8.70;99.90;;;;;;10300640;28;20573;-77
2022/04/10 08:42:04;;;;;;;13.40;2.43;;;8.00;99.90;;;;;;10291711;28;20200;-76
2022/04/10 08:47:30;;;;;;;10.67;2.93;;;7.10;99.90;;;;;;10277794;29;20227;-84
2022/04/10 08:52:52;;;;;;;7.47;2.50;;;6.90;99.90;;;;;;10293923;28;20232;-78
2022/04/10 08:58:13;;;;;;;9.10;2.53;;;6.90;99.90;;;;;;10278335;29;20194;-80
2022/04/10 09:03:36;;;;;;;11.80;2.80;;;7.30;99.90;;;;;;10304669;28;20200;-77
2022/04/10 09:09:18;;;;;;;4.73;1.50;;;9.00;99.90;;;;;;10318159;28;20244;-78
2022/04/10 09:14:43;;;;;;;7.20;2.43;;;9.30;99.40;;;;;;10317938;28;20193;-78
2022/04/10 09:20:05;;;;;;;11.83;3.13;;;8.60;99.90;;;;;;10332936;28;20277;-79
2022/04/10 09:25:28;;;;;;;7.63;2.00;;;9.30;99.90;;;;;;10319213;28;20252;-84
2022/04/10 09:30:49;;;;;;;9.63;2.00;;;10.40;94.10;;;;;;10302512;28;20231;-77
2022/04/10 09:36:10;;;;;;;8.70;2.77;;;10.60;85.20;;;;;;10303228;28;20821;-76
2022/04/10 09:41:32;;;;;;;8.67;2.70;;;11.00;88.30;;;;;;10277013;29;20256;-76
2022/04/10 09:46:58;;;;;;;9.70;3.37;;;11.90;77.30;;;;;;10276718;29;20224;-77
2022/04/10 09:52:20;;;;;;;6.87;2.67;;;12.60;57.50;;;;;;10276575;29;20189;-77
2022/04/10 09:57:52;;;;;;;12.80;2.30;;;11.40;56.90;;;;;;10291167;28;20204;-79
2022/04/10 10:03:14;;;;;;;7.30;3.00;;;10.70;70.30;;;;;;10316880;28;20192;-82
2022/04/10 10:08:37;;;;;;;8.50;3.00;;;11.10;66.40;;;;;;10331174;28;20269;-82
2022/04/10 10:13:59;;;;;;;8.43;2.47;;;12.30;57.00;;;;;;10316190;28;20503;-81
2022/04/10 10:19:20;;;;;;;4.13;1.70;;;11.60;52.80;;;;;;10315790;28;20224;-77
2022/04/10 10:25:12;;;;;;;10.00;2.33;;;11.70;62.00;;;;;;10315188;28;20195;-77
2022/04/10 10:30:52;;;;;;;6.37;2.10;;;11.80;58.70;;;;;;10312836;28;20437;-77
2022/04/10 10:36:26;;;;;;;7.83;2.40;;;10.90;68.90;;;;;;10299771;28;20636;-77
2022/04/10 10:41:51;;;;;;;8.90;2.20;;;9.90;88.00;;;;;;10289956;28;20203;-76
2022/04/10 10:47:26;;;;;;;8.17;2.13;;;9.10;94.20;;;;;;10274255;29;20271;-77
2022/04/10 10:53:05;;;;;;;6.57;2.50;;;11.00;94.90;;;;;;10304024;28;20224;-77
2022/04/10 10:58:32;;;;;;;4.23;2.67;;;13.00;74.20;;;;;;10313859;28;20338;-77
2022/04/10 11:04:04;;;;;;;17.97;9.57;;;13.30;59.20;;;;;;10314654;28;20229;-78
2022/04/10 11:09:30;;;;;;;2.73;1.90;;;11.60;66.00;;;;;;10322200;28;20474;-85
2022/04/10 11:14:52;;;;;;;9.30;4.73;;;10.00;92.90;;;;;;10322333;28;20540;-77
2022/04/10 11:20:16;;;;;;;7.20;2.20;;;8.90;99.90;;;;;;10321430;28;20196;-76
2022/04/10 11:25:48;;;;;;;16.00;4.70;;;7.80;99.90;;;;;;10336832;28;20201;-79
2022/04/10 11:31:40;;;;;;;9.37;2.83;;;7.50;99.90;;;;;;10321510;28;20518;-78
2022/04/10 11:37:03;;;;;;;7.53;2.53;;;7.60;99.90;;;;;;10299766;28;20247;-77
2022/04/10 11:42:26;;;;;;;8.87;2.27;;;9.90;99.90;;;;;;10296121;28;20203;-79
2022/04/10 11:47:47;;;;;;;6.23;1.93;;;11.90;99.50;;;;;;10293620;28;20230;-77
2022/04/10 11:53:11;;;;;;;6.18;1.90;;;13.40;96.70;;;;;;10317024;28;20390;-84
2022/04/10 11:58:36;;;;;;;16.43;5.27;;;14.00;81.90;;;;;;10320056;28;20198;-78
2022/04/10 12:03:57;;;;;;;13.83;4.97;;;13.00;87.50;;;;;;10320798;28;20248;-84
2022/04/10 12:09:18;;;;;;;14.20;6.30;;;11.70;91.10;;;;;;10332896;28;20224;-76
2022/04/10 12:14:39;;;;;;;6.30;3.00;;;10.80;93.80;;;;;;10319475;28;20243;-76
2022/04/10 12:20:00;;;;;;;4.17;1.13;;;10.10;89.80;;;;;;10305452;28;20464;-78
2022/04/10 12:25:22;;;;;;;2.13;0.90;;;10.40;81.40;;;;;;10319529;28;20202;-76
2022/04/10 12:30:43;;;;;;;5.47;2.10;;;11.00;77.00;;;;;;10321273;28;20233;-77
2022/04/10 12:36:18;;;;;;;1.30;0.87;;;10.80;70.30;;;;;;10306097;28;20561;-79
2022/04/10 12:41:39;;;;;;;2.50;1.40;;;10.60;75.40;;;;;;10278448;29;20272;-79
2022/04/10 12:47:01;;;;;;;4.27;1.10;;;11.30;71.90;;;;;;10279284;29;20401;-78
2022/04/10 12:52:22;;;;;;;2.30;1.20;;;11.50;65.80;;;;;;10310638;28;20201;-78
2022/04/10 12:58:01;;;;;;;2.57;1.50;;;11.60;61.40;;;;;;10319032;28;20480;-79
2022/04/10 13:03:28;;;;;;;5.37;2.07;;;12.20;64.10;;;;;;10318484;28;20202;-80
2022/04/10 13:08:49;;;;;;;4.87;1.50;;;11.70;62.70;;;;;;10318354;28;20220;-80
2022/04/10 13:14:13;;;;;;;6.63;2.27;;;11.00;75.80;;;;;;10318229;28;20687;-77
2022/04/10 13:19:34;;;;;;;6.50;1.37;;;11.10;79.30;;;;;;10316859;28;20208;-77
2022/04/10 13:24:55;;;;;;;7.40;2.40;;;9.80;93.00;;;;;;10317388;28;20225;-77
2022/04/10 13:30:17;;;;;;;4.70;1.70;;;8.80;99.90;;;;;;10317018;28;20242;-77
2022/04/10 13:35:38;;;;;;;6.03;2.00;;;8.10;99.90;;;;;;10306566;28;20312;-77
2022/04/10 13:40:59;;;;;;;9.83;2.27;;;7.70;99.90;;;;;;10277090;29;20272;-77
2022/04/10 13:46:21;;;;;;;5.37;2.40;;;7.80;99.90;;;;;;10276844;29;20265;-77
2022/04/10 13:51:42;;;;;;;5.93;2.53;;;8.60;99.90;;;;;;10288446;28;20264;-77
2022/04/10 13:57:04;;;;;;;7.20;2.27;;;9.10;99.90;;;;;;10331746;28;20206;-77
2022/04/10 14:02:26;;;;;;;3.30;1.90;;;9.40;99.90;;;;;;10329202;28;20199;-84
2022/04/10 14:07:47;;;;;;;3.30;1.30;;;9.50;99.90;;;;;;10330953;28;20233;-79
2022/04/10 14:13:08;;;;;;;7.70;2.00;;;9.50;99.30;;;;;;10331020;28;20495;-77
2022/04/10 14:18:29;;;;;;;5.63;1.67;;;9.10;99.90;;;;;;10275753;29;20371;-77
2022/04/10 14:23:51;;;;;;;8.50;2.13;;;8.50;99.90;;;;;;10281026;28;20208;-77
2022/04/10 14:29:12;;;;;;;3.47;1.70;;;8.40;99.90;;;;;;10315165;28;20232;-77
2022/04/10 14:34:35;;;;;;;6.73;2.97;;;8.70;99.90;;;;;;10327251;28;20302;-77
2022/04/10 14:39:56;;;;;;;9.77;2.90;;;8.80;99.90;;;;;;10314717;28;20209;-79
2022/04/10 14:45:17;;;;;;;11.30;3.27;;;8.50;99.90;;;;;;10315311;28;20244;-77
2022/04/10 14:50:39;;;;;;;4.63;1.93;;;8.50;99.90;;;;;;10314733;28;20218;-84
2022/04/10 14:56:01;;;;;;;8.70;2.07;;;8.50;99.90;;;;;;10314373;28;20197;-83
2022/04/10 15:01:22;;;;;;;8.23;2.67;;;8.60;99.90;;;;;;10317367;28;20191;-81
2022/04/10 15:06:44;;;;;;;8.93;3.23;;;8.70;97.30;;;;;;10315362;28;20211;-80
2022/04/10 15:12:07;;;;;;;5.67;2.03;;;8.70;95.60;;;;;;10301493;28;20203;-78
2022/04/10 15:17:29;;;;;;;5.10;2.67;;;8.50;95.90;;;;;;10316007;28;20281;-76
2022/04/10 15:22:50;;;;;;;8.33;2.43;;;8.40;97.20;;;;;;10318620;28;20200;-85
2022/04/10 15:28:14;;;;;;;7.57;2.70;;;8.40;98.90;;;;;;10303672;28;20235;-82
2022/04/10 15:33:36;;;;;;;8.13;2.33;;;8.20;98.20;;;;;;10317756;28;20440;-84
2022/04/10 15:38:57;;;;;;;10.90;2.77;;;8.00;99.00;;;;;;10291740;28;20214;-76
2022/04/10 15:44:18;;;;;;;13.70;2.13;;;7.90;99.00;;;;;;10274194;29;20263;-78
2022/04/10 15:49:41;;;;;;;10.60;2.57;;;7.80;99.90;;;;;;10289847;28;20414;-76
2022/04/10 15:55:02;;;;;;;8.30;2.67;;;7.80;98.70;;;;;;10334183;28;20198;-78
2022/04/10 16:00:24;;;;;;;5.27;2.00;;;7.80;97.50;;;;;;10320890;28;20197;-79
2022/04/10 16:05:45;;;;;;;7.17;2.50;;;7.60;97.60;;;;;;10320906;28;20200;-84
2022/04/10 16:11:06;;;;;;;9.93;3.30;;;7.40;98.20;;;;;;10320582;28;20235;-78
2022/04/10 16:16:27;;;;;;;9.37;2.77;;;7.20;98.10;;;;;;10335171;28;20255;-77
2022/04/10 16:21:52;;;;;;;7.93;2.40;;;7.00;99.20;;;;;;10319947;28;20192;-78
2022/04/10 16:32:57;;;;;;;10.33;2.23;;;7.00;99.80;;;;;;10318609;28;20420;-79
2022/04/10 16:38:18;;;;;;;7.13;2.20;;;7.00;99.50;;;;;;10319284;28;20275;-78
2022/04/10 16:43:39;;;;;;;8.87;2.07;;;6.90;99.90;;;;;;10319104;28;20264;-77
2022/04/10 16:49:02;;;;;;;7.63;2.40;;;6.80;99.90;;;;;;10334156;28;20232;-77
2022/04/10 17:00:25;;;;;;;8.33;2.20;;;6.70;99.90;;;;;;10318422;28;20428;-83
2022/04/10 17:05:46;;;;;;;9.93;2.30;;;6.50;99.90;;;;;;10330467;28;20388;-77
2022/04/10 17:11:07;;;;;;;4.10;1.70;;;6.40;99.90;;;;;;10317372;28;20220;-77
2022/04/10 17:16:29;;;;;;;8.47;2.27;;;6.40;99.90;;;;;;10317632;28;20192;-78
2022/04/10 17:21:50;;;;;;;7.77;2.20;;;6.30;99.90;;;;;;10318199;28;20241;-77
2022/04/10 17:27:11;;;;;;;12.73;3.07;;;6.10;99.90;;;;;;10332864;28;20209;-77
2022/04/10 17:32:33;;;;;;;31.97;13.53;;;6.00;99.90;;;;;;10302711;28;20383;-76
2022/04/10 17:37:54;;;;;;;9.07;3.63;;;5.90;99.90;;;;;;10289364;28;20239;-78
2022/04/10 17:43:15;;;;;;;9.83;2.53;;;5.90;99.90;;;;;;10279139;28;20487;-77
2022/04/10 17:48:36;;;;;;;8.23;2.20;;;5.70;99.90;;;;;;10329670;28;20302;-77
2022/04/10 17:53:58;;;;;;;10.07;2.40;;;5.70;99.90;;;;;;10315746;28;20193;-76
2022/04/10 17:59:23;;;;;;;12.07;3.43;;;5.60;99.90;;;;;;10315589;28;20416;-79
2022/04/10 18:04:44;;;;;;;6.50;3.33;;;5.60;99.90;;;;;;10329280;28;20489;-85
2022/04/10 18:10:05;;;;;;;8.00;3.10;;;5.50;99.90;;;;;;10316454;28;20220;-81
2022/04/10 18:15:27;;;;;;;10.40;4.03;;;5.40;99.90;;;;;;10315624;28;20421;-83
2022/04/10 18:20:49;;;;;;;15.57;7.60;;;5.40;99.90;;;;;;10315268;28;20511;-80
2022/04/10 18:26:14;;;;;;;15.00;4.53;;;5.30;99.90;;;;;;10315692;28;20668;-84
2022/04/10 18:31:36;;;;;;;10.03;4.13;;;5.30;99.90;;;;;;10315616;28;20530;-79
2022/04/10 18:36:57;;;;;;;9.67;3.17;;;5.20;99.90;;;;;;10330340;28;20487;-78
2022/04/10 18:42:18;;;;;;;16.67;7.10;;;5.20;99.90;;;;;;10328007;28;20190;-77
2022/04/10 18:47:40;;;;;;;43.93;12.40;;;5.20;99.90;;;;;;10319636;28;20270;-82
2022/04/10 18:53:02;;;;;;;27.60;13.07;;;5.10;99.90;;;;;;10314946;28;20205;-78
2022/04/10 18:58:23;;;;;;;37.23;14.47;;;5.00;99.90;;;;;;10314846;28;20508;-77
2022/04/10 19:03:44;;;;;;;32.27;12.13;;;5.00;99.90;;;;;;10314702;28;20238;-76
2022/04/10 19:09:06;;;;;;;17.77;6.13;;;4.90;99.90;;;;;;10329958;28;20238;-80
2022/04/10 19:14:27;;;;;;;11.93;4.73;;;4.90;99.90;;;;;;10315104;28;20210;-79
2022/04/10 19:19:49;;;;;;;20.67;9.07;;;4.80;99.90;;;;;;10315031;28;20514;-84
2022/04/10 19:25:10;;;;;;;26.07;12.23;;;4.80;99.90;;;;;;10314462;28;20195;-77
2022/04/10 19:30:31;;;;;;;26.20;9.17;;;4.70;99.90;;;;;;10319609;28;20231;-83
2022/04/10 19:35:53;;;;;;;22.37;10.90;;;4.60;99.90;;;;;;10303662;28;20246;-80
2022/04/10 19:41:14;;;;;;;29.10;13.47;;;4.60;99.90;;;;;;10281624;29;20252;-77
2022/04/10 19:46:35;;;;;;;26.90;12.03;;;4.50;99.90;;;;;;10314434;28;20210;-77
2022/04/10 19:51:57;;;;;;;28.70;13.20;;;4.50;99.90;;;;;;10334040;28;20223;-82
2022/04/10 19:57:18;;;;;;;37.03;16.53;;;4.40;99.90;;;;;;10334104;28;20194;-83
2022/04/10 20:02:41;;;;;;;45.40;22.10;;;4.40;99.90;;;;;;10321221;28;20196;-84
2022/04/10 20:08:03;;;;;;;33.07;13.17;;;4.40;99.90;;;;;;10320753;28;20552;-84
2022/04/10 20:13:25;;;;;;;23.27;8.67;;;4.40;99.90;;;;;;10319694;28;20191;-83
2022/04/10 20:18:46;;;;;;;35.57;14.47;;;4.30;99.90;;;;;;10320798;28;20201;-82
2022/04/10 20:24:07;;;;;;;21.07;8.23;;;4.20;99.90;;;;;;10320105;28;20217;-78
2022/04/10 20:29:29;;;;;;;15.27;4.60;;;4.30;99.90;;;;;;10319139;28;20225;-77
2022/04/10 20:34:50;;;;;;;13.23;4.27;;;4.20;99.90;;;;;;10301718;28;20231;-79
2022/04/10 20:40:12;;;;;;;8.57;3.27;;;4.10;99.90;;;;;;10292236;28;20200;-83
2022/04/10 20:45:33;;;;;;;12.67;3.13;;;4.10;99.90;;;;;;10301527;28;20198;-82
2022/04/10 20:50:54;;;;;;;9.53;3.53;;;4.00;99.90;;;;;;10320568;28;20547;-79
2022/04/10 20:56:15;;;;;;;7.80;3.53;;;4.00;99.90;;;;;;10319178;28;20555;-78
2022/04/10 21:01:38;;;;;;;14.63;4.77;;;4.00;99.90;;;;;;10334000;28;20220;-77
2022/04/10 21:06:59;;;;;;;26.50;7.93;;;3.90;99.90;;;;;;10318202;28;20193;-81
2022/04/10 21:12:21;;;;;;;40.87;11.73;;;3.90;99.90;;;;;;10333609;28;20226;-77
2022/04/10 21:17:42;;;;;;;34.47;12.27;;;3.90;99.90;;;;;;10293280;28;20203;-78
2022/04/10 21:23:05;;;;;;;18.53;6.60;;;3.80;99.90;;;;;;10278004;29;20198;-78
2022/04/10 21:28:26;;;;;;;15.50;5.60;;;3.80;99.90;;;;;;10277818;29;20225;-76
2022/04/10 21:33:47;;;;;;;13.07;4.00;;;3.70;99.90;;;;;;10278545;28;20230;-78
2022/04/10 21:39:10;;;;;;;10.53;3.77;;;3.60;99.90;;;;;;10278885;28;20501;-76
2022/04/10 21:44:31;;;;;;;13.87;4.20;;;3.60;99.90;;;;;;10291343;28;20273;-76
2022/04/10 21:49:53;;;;;;;16.83;4.97;;;3.60;99.90;;;;;;10331470;28;20284;-77
2022/04/10 21:55:14;;;;;;;11.53;4.13;;;3.50;99.90;;;;;;10316627;28;20193;-76
2022/04/10 22:00:35;;;;;;;19.67;7.80;;;3.50;99.90;;;;;;10331782;28;20204;-76
2022/04/10 22:05:57;;;;;;;32.40;11.47;;;3.40;99.90;;;;;;10331087;28;20245;-77
2022/04/10 22:11:18;;;;;;;28.27;10.30;;;3.40;99.90;;;;;;10316155;28;20225;-76
2022/04/10 22:16:40;;;;;;;20.17;7.90;;;3.40;99.90;;;;;;10314602;28;20198;-76
2022/04/10 22:22:01;;;;;;;20.50;7.00;;;3.30;99.90;;;;;;10315335;28;20387;-80
2022/04/10 22:27:23;;;;;;;16.20;7.03;;;3.10;99.90;;;;;;10301401;28;20240;-77
2022/04/10 22:32:44;;;;;;;19.07;5.30;;;3.10;99.90;;;;;;10315317;28;20322;-84
2022/04/10 22:38:05;;;;;;;16.03;6.90;;;3.10;99.90;;;;;;10328562;28;20205;-77
2022/04/10 22:43:26;;;;;;;17.97;5.20;;;3.10;99.90;;;;;;10312461;28;20538;-76
2022/04/10 22:48:48;;;;;;;15.57;4.97;;;3.10;99.90;;;;;;10313371;28;20237;-78
2022/04/10 22:54:09;;;;;;;10.57;3.73;;;3.10;99.90;;;;;;10313412;28;20229;-85
2022/04/10 22:59:31;;;;;;;8.33;3.70;;;3.00;99.90;;;;;;10313312;28;20411;-76
2022/04/10 23:04:52;;;;;;;10.30;3.40;;;3.00;99.90;;;;;;10332958;28;20206;-77
2022/04/10 23:10:14;;;;;;;10.20;3.33;;;2.90;99.90;;;;;;10320152;28;20450;-76
2022/04/10 23:15:35;;;;;;;11.37;3.70;;;2.90;99.90;;;;;;10279075;29;20543;-78
2022/04/10 23:20:56;;;;;;;14.47;3.50;;;2.80;99.90;;;;;;10279618;29;20202;-77
2022/04/10 23:26:18;;;;;;;9.77;2.60;;;2.80;99.90;;;;;;10295106;28;20228;-77
2022/04/10 23:31:39;;;;;;;6.87;2.60;;;2.80;99.90;;;;;;10279550;29;20230;-77
2022/04/10 23:37:01;;;;;;;10.10;3.70;;;2.70;99.90;;;;;;10259822;28;1250480;-76
2022/04/10 23:42:22;;;;;;;12.37;3.33;;;2.70;99.90;;;;;;10282932;28;20199;-76
2022/04/10 23:47:43;;;;;;;6.40;2.80;;;2.70;99.90;;;;;;10334438;28;20484;-78
2022/04/10 23:53:05;;;;;;;7.70;2.90;;;2.70;99.90;;;;;;10320963;28;20201;-78
2022/04/10 23:58:26;;;;;;;9.13;3.53;;;2.60;99.90;;;;;;10321575;28;20212;-77
